Time;durP1;ratioP1;P1;durP2;ratioP2;P2;SDS_P1;SDS_P2;PMS_P1;PMS_P2;Temp;Humidity;BMP_temperature;BMP_pressure;BME280_temperature;BME280_humidity;BME280_pressure;Samples;Min_cycle;Max_cycle;Signal;HPM_P1;HPM_P2
2024/02/07 00:02:22;;;;;;;1.50;0.87;;;10.30;99.90;10.20;99153.00;;;;4894088;28;94226;-67
2024/02/07 00:04:47;;;;;;;0.63;0.50;;;10.30;99.90;10.30;99154.00;;;;4894446;28;92956;-67
2024/02/07 00:07:13;;;;;;;1.33;1.07;;;10.40;99.90;10.30;99147.00;;;;4895175;28;109479;-66
2024/02/07 00:09:40;;;;;;;0.70;0.63;;;10.30;99.90;10.30;99151.00;;;;4897571;28;123730;-67
2024/02/07 00:12:06;;;;;;;0.60;0.60;;;10.30;99.90;10.30;99147.00;;;;4896549;28;94122;-68
2024/02/07 00:14:31;;;;;;;1.77;0.77;;;10.40;99.90;10.30;99155.00;;;;4895435;28;93232;-67
2024/02/07 00:16:57;;;;;;;6.13;0.60;;;10.30;99.90;10.30;99152.00;;;;4898464;28;102938;-67
2024/02/07 00:19:23;;;;;;;2.37;0.73;;;10.30;99.90;10.30;99144.00;;;;4896160;28;93221;-66
2024/02/07 00:21:49;;;;;;;2.53;1.23;;;10.70;99.90;10.30;99164.00;;;;4895768;28;92978;-67
2024/02/07 00:24:14;;;;;;;1.30;0.60;;;10.40;99.90;10.30;99150.00;;;;4895330;28;93724;-65
2024/02/07 00:26:40;;;;;;;1.33;0.97;;;10.30;99.90;10.30;99160.00;;;;4898137;28;108856;-68
2024/02/07 00:29:06;;;;;;;0.53;0.53;;;10.40;99.90;10.30;99131.00;;;;4893878;28;123170;-68
2024/02/07 00:31:33;;;;;;;0.40;0.40;;;10.40;99.90;10.30;99153.00;;;;4902692;28;106862;-67
2024/02/07 00:33:58;;;;;;;2.20;0.70;;;10.30;99.90;10.30;99133.00;;;;4896975;28;102045;-67
2024/02/07 00:36:24;;;;;;;6.87;0.90;;;10.40;99.90;10.40;99119.00;;;;4893017;28;108780;-69
2024/02/07 00:38:50;;;;;;;1.13;0.70;;;10.40;99.90;10.30;99112.00;;;;4891726;28;119579;-67
2024/02/07 00:41:24;;;;;;;1.10;0.70;;;10.40;99.90;10.30;99112.00;;;;4894196;28;123726;-67
2024/02/07 00:43:50;;;;;;;0.60;0.50;;;10.40;99.90;10.40;99114.00;;;;4899297;28;93006;-69
2024/02/07 00:46:16;;;;;;;3.00;0.80;;;10.40;99.90;10.40;99108.00;;;;4899166;28;93160;-67
2024/02/07 00:48:43;;;;;;;1.20;0.87;;;10.50;99.90;10.40;99100.00;;;;4895520;28;122948;-68
2024/02/07 00:51:09;;;;;;;1.97;0.70;;;10.40;99.90;10.40;99115.00;;;;4895544;28;94721;-67
2024/02/07 00:53:35;;;;;;;1.07;0.70;;;10.50;99.90;10.40;99092.00;;;;4898868;28;101102;-69
2024/02/07 00:56:01;;;;;;;1.50;0.70;;;10.50;99.90;10.40;99092.00;;;;4910065;28;94165;-68
2024/02/07 00:58:26;;;;;;;1.40;0.93;;;10.50;99.90;10.50;99099.00;;;;4901861;28;106251;-69
2024/02/07 01:00:52;;;;;;;0.50;0.43;;;10.50;99.90;10.50;99092.00;;;;4897431;28;93574;-67
2024/02/07 01:03:18;;;;;;;3.13;0.73;;;10.50;99.90;10.40;99085.00;;;;4897535;28;93231;-67
2024/02/07 01:05:44;;;;;;;3.57;0.90;;;10.50;99.90;10.50;99085.00;;;;4899952;28;92202;-68
2024/02/07 01:08:10;;;;;;;2.03;0.70;;;10.10;99.90;10.50;99072.00;;;;4896077;28;122254;-67
2024/02/07 01:10:36;;;;;;;0.67;0.60;;;10.50;99.90;10.50;99079.00;;;;4895486;28;94269;-67
2024/02/07 01:13:03;;;;;;;0.73;0.60;;;10.50;99.90;10.50;99086.00;;;;4899318;28;93952;-67
2024/02/07 01:15:29;;;;;;;1.77;0.87;;;10.50;99.90;10.50;99085.00;;;;4895327;28;93061;-67
2024/02/07 01:17:55;;;;;;;0.97;0.67;;;10.50;99.90;10.50;99049.00;;;;4896511;28;119525;-67
2024/02/07 01:20:20;;;;;;;4.07;1.07;;;10.50;99.90;10.50;99060.00;;;;4900317;28;121914;-67
2024/02/07 01:22:46;;;;;;;1.73;0.60;;;10.50;99.90;10.50;99078.00;;;;4895025;28;109485;-67
2024/02/07 01:25:12;;;;;;;1.13;0.93;;;10.60;99.90;10.50;99065.00;;;;4896309;28;108840;-66
2024/02/07 01:27:39;;;;;;;3.10;1.27;;;10.50;99.90;10.50;99086.00;;;;4899373;28;114985;-66
2024/02/07 01:30:11;;;;;;;0.87;0.87;;;10.50;99.90;10.50;99062.00;;;;4897126;28;93478;-67
2024/02/07 01:32:41;;;;;;;0.80;0.77;;;10.60;99.90;10.50;99060.00;;;;4893945;28;93154;-67
2024/02/07 01:35:09;;;;;;;2.10;1.17;;;10.60;99.90;10.50;99058.00;;;;4892456;28;93219;-68
2024/02/07 01:37:38;;;;;;;1.07;0.93;;;10.60;99.90;10.50;99068.00;;;;4892957;28;94942;-67
2024/02/07 01:40:06;;;;;;;2.83;0.80;;;10.60;99.90;10.60;99044.00;;;;4894290;28;94391;-67
2024/02/07 01:42:32;;;;;;;3.63;1.27;;;10.60;99.90;10.60;99040.00;;;;4913671;28;93109;-67
2024/02/07 01:45:30;;;;;;;3.30;0.87;;;10.60;99.90;10.50;99026.00;;;;4897624;28;92932;-68
2024/02/07 01:47:56;;;;;;;3.70;1.10;;;10.60;99.90;10.60;99022.00;;;;4890083;28;93340;-68
2024/02/07 01:50:23;;;;;;;2.23;1.00;;;10.60;99.90;10.60;99032.00;;;;4897034;28;93688;-68
2024/02/07 01:52:52;;;;;;;1.53;1.10;;;10.70;99.90;10.60;99026.00;;;;4905343;28;100505;-67
2024/02/07 01:55:18;;;;;;;1.13;0.80;;;10.70;99.90;10.60;99036.00;;;;4894473;28;91957;-67
2024/02/07 01:57:44;;;;;;;1.93;0.87;;;10.60;99.90;10.60;99022.00;;;;4896848;28;123949;-66
2024/02/07 02:00:11;;;;;;;0.57;0.57;;;10.60;99.90;10.60;99007.00;;;;4893219;28;120479;-68
2024/02/07 02:02:38;;;;;;;1.00;0.57;;;10.60;99.90;10.60;99015.00;;;;4893105;28;93817;-69
2024/02/07 02:05:05;;;;;;;1.80;1.07;;;10.60;99.90;10.60;99012.00;;;;4895939;28;92985;-69
2024/02/07 02:07:30;;;;;;;3.80;1.50;;;10.60;99.90;10.60;98996.00;;;;4894152;28;113858;-68
2024/02/07 02:09:57;;;;;;;1.63;1.07;;;10.60;99.90;10.60;99018.00;;;;4898006;28;121860;-69
2024/02/07 02:12:22;;;;;;;2.60;1.27;;;10.60;99.90;10.60;98994.00;;;;4892268;28;110705;-67
2024/02/07 02:14:49;;;;;;;1.10;1.00;;;10.60;99.90;10.60;98973.00;;;;4897346;28;108664;-68
2024/02/07 02:17:15;;;;;;;1.37;1.23;;;10.70;99.90;10.60;98990.00;;;;4898281;28;112659;-67
2024/02/07 02:19:41;;;;;;;0.83;0.73;;;10.60;99.90;10.60;98978.00;;;;4898026;28;122997;-68
2024/02/07 02:22:34;;;;;;;0.90;0.83;;;10.60;99.90;10.50;98972.00;;;;4901314;28;107432;-67
2024/02/07 02:25:11;;;;;;;1.37;1.10;;;10.60;99.90;10.60;98966.00;;;;4896544;28;94095;-69
2024/02/07 02:28:18;;;;;;;2.63;1.40;;;10.60;99.90;10.50;98951.00;;;;4912632;28;107030;-68
2024/02/07 02:30:53;;;;;;;1.73;1.00;;;10.60;99.90;10.60;98954.00;;;;4906663;28;95414;-68
2024/02/07 02:33:22;;;;;;;0.83;0.70;;;10.60;99.90;10.60;98949.00;;;;4892932;28;92871;-68
2024/02/07 02:35:49;;;;;;;2.37;1.03;;;10.60;99.90;10.60;98932.00;;;;4893291;28;92837;-68
2024/02/07 02:38:15;;;;;;;2.83;1.17;;;10.60;99.90;10.60;98941.00;;;;4896601;28;122519;-68
2024/02/07 02:40:43;;;;;;;1.17;0.63;;;10.70;99.90;10.60;98927.00;;;;4893806;28;94065;-69
2024/02/07 02:43:10;;;;;;;0.97;0.77;;;10.60;99.90;10.60;98915.00;;;;4909173;28;93306;-70
2024/02/07 02:45:36;;;;;;;1.63;1.10;;;10.70;99.90;10.50;98920.00;;;;4895469;28;93394;-68
2024/02/07 02:48:02;;;;;;;1.80;1.10;;;10.60;99.90;10.60;98914.00;;;;4897075;28;94770;-68
2024/02/07 02:50:32;;;;;;;3.13;1.03;;;10.60;99.90;10.50;98901.00;;;;4895164;28;93239;-67
2024/02/07 02:52:58;;;;;;;1.97;0.77;;;10.60;99.90;10.50;98896.00;;;;4911798;28;93944;-67
2024/02/07 02:55:25;;;;;;;10.37;1.23;;;10.60;99.90;10.50;98917.00;;;;4896639;28;94369;-68
2024/02/07 02:57:51;;;;;;;6.57;1.30;;;10.60;99.90;10.50;98907.00;;;;4898313;28;93327;-68
2024/02/07 03:00:20;;;;;;;1.47;0.80;;;10.60;99.90;10.50;98891.00;;;;4897014;28;93158;-67
2024/02/07 03:02:46;;;;;;;1.07;0.97;;;10.60;99.90;10.50;98884.00;;;;4900564;28;93130;-69
2024/02/07 03:05:37;;;;;;;2.13;1.40;;;10.60;99.90;10.50;98896.00;;;;4895009;28;92742;-68
2024/02/07 03:10:37;;;;;;;2.23;1.00;;;10.50;99.90;10.50;98906.00;;;;4900773;28;93285;-68
2024/02/07 03:13:03;;;;;;;1.70;0.80;;;10.60;99.90;10.50;98883.00;;;;4900372;28;93310;-68
2024/02/07 03:15:29;;;;;;;4.20;1.23;;;10.60;99.90;10.50;98882.00;;;;4897100;28;95495;-68
2024/02/07 03:17:54;;;;;;;2.80;1.10;;;10.60;99.90;10.50;98868.00;;;;4899209;28;95075;-68
2024/02/07 03:20:20;;;;;;;3.10;1.40;;;10.50;99.90;10.50;98883.00;;;;4895847;28;121803;-68
2024/02/07 03:22:46;;;;;;;2.73;0.90;;;10.60;99.90;10.50;98879.00;;;;4900400;28;110478;-67
2024/02/07 03:25:16;;;;;;;2.10;1.10;;;10.50;99.90;10.50;98878.00;;;;4896090;28;108355;-68
2024/02/07 03:27:48;;;;;;;0.70;0.70;;;10.50;99.90;10.50;98879.00;;;;4898869;28;93625;-68
2024/02/07 03:30:21;;;;;;;3.30;1.10;;;10.50;99.90;10.40;98865.00;;;;4899436;28;93037;-67
2024/02/07 03:32:51;;;;;;;1.70;1.00;;;10.50;99.90;10.40;98880.00;;;;4910229;28;93398;-68
2024/02/07 03:35:17;;;;;;;2.33;1.37;;;10.50;99.90;10.30;98881.00;;;;4898479;28;92450;-67
2024/02/07 03:37:44;;;;;;;2.60;1.27;;;10.40;99.90;10.20;98877.00;;;;4892973;28;93401;-67
2024/02/07 03:40:13;;;;;;;1.27;1.00;;;10.30;99.90;9.90;98865.00;;;;4898722;28;108628;-69
2024/02/07 03:42:43;;;;;;;1.47;1.13;;;10.20;99.90;9.70;98864.00;;;;4900152;28;94083;-67
2024/02/07 03:45:16;;;;;;;3.83;1.27;;;9.90;99.90;9.50;98837.00;;;;4900283;28;93220;-71
2024/02/07 03:47:45;;;;;;;2.83;1.20;;;9.70;99.90;9.30;98866.00;;;;4896913;28;94066;-70
2024/02/07 03:50:12;;;;;;;1.17;1.00;;;9.50;99.90;9.20;98865.00;;;;4912792;28;93900;-71
2024/02/07 03:52:43;;;;;;;1.97;1.27;;;9.30;99.90;9.10;98855.00;;;;4897296;28;92925;-69
2024/02/07 03:55:12;;;;;;;3.90;1.23;;;9.30;99.90;8.90;98853.00;;;;4897552;28;92895;-70
2024/02/07 03:57:45;;;;;;;5.90;1.57;;;9.20;99.90;8.90;98855.00;;;;4894166;28;114267;-71
2024/02/07 04:00:15;;;;;;;1.87;1.77;;;9.10;99.90;8.80;98846.00;;;;4894031;28;93080;-69
2024/02/07 04:02:48;;;;;;;2.57;1.50;;;9.00;99.90;8.80;98858.00;;;;4908658;28;92991;-70
2024/02/07 04:05:17;;;;;;;1.33;1.00;;;9.00;99.90;8.70;98851.00;;;;4911722;28;92969;-70
2024/02/07 04:07:43;;;;;;;5.20;1.30;;;8.90;99.90;8.70;98851.00;;;;4896065;28;123766;-69
2024/02/07 04:10:09;;;;;;;1.83;1.07;;;8.90;99.90;8.70;98859.00;;;;4895486;28;122384;-68
2024/02/07 05:15:46;;;;;;;1.67;1.07;;;9.40;99.90;9.40;98782.00;;;;4896819;28;93023;-68
2024/02/07 05:18:12;;;;;;;1.93;1.03;;;9.50;99.90;9.50;98803.00;;;;4897005;28;92893;-67
2024/02/07 05:20:37;;;;;;;3.40;1.50;;;9.60;99.90;9.60;98795.00;;;;4894986;28;92499;-66
2024/02/07 05:23:03;;;;;;;0.80;0.80;;;9.60;99.90;9.60;98795.00;;;;4888317;28;122523;-66
2024/02/07 05:25:32;;;;;;;1.87;0.90;;;9.70;99.90;9.60;98817.00;;;;4886940;28;121522;-67
2024/02/07 05:27:58;;;;;;;1.03;1.00;;;9.70;99.90;9.70;98799.00;;;;4890660;28;94284;-67
2024/02/07 05:30:24;;;;;;;1.77;1.37;;;9.70;99.90;9.70;98801.00;;;;4888557;28;101895;-67
2024/02/07 05:32:49;;;;;;;2.73;1.13;;;9.80;99.90;9.70;98779.00;;;;4890283;28;93768;-66
2024/02/07 05:35:15;;;;;;;1.47;1.23;;;9.80;99.90;9.80;98799.00;;;;4892507;28;122229;-66
2024/02/07 05:37:41;;;;;;;6.27;1.33;;;9.70;99.90;9.80;98803.00;;;;4888657;28;110445;-67
2024/02/07 05:40:07;;;;;;;1.60;1.20;;;10.00;99.90;9.80;98817.00;;;;4891982;28;92895;-68
2024/02/07 05:42:33;;;;;;;3.10;1.23;;;9.80;99.90;9.80;98793.00;;;;4891182;28;105948;-66
2024/02/07 05:44:58;;;;;;;0.53;0.53;;;9.80;99.90;9.60;98802.00;;;;4893317;28;122859;-67
2024/02/07 05:47:24;;;;;;;3.87;1.30;;;9.80;99.90;9.50;98814.00;;;;4891061;28;109497;-67
2024/02/07 05:49:50;;;;;;;1.13;0.73;;;9.60;99.90;9.30;98797.00;;;;4892685;28;93169;-72
2024/02/07 05:52:15;;;;;;;3.07;0.90;;;9.50;99.90;9.20;98822.00;;;;4890989;28;122088;-70
2024/02/07 05:54:43;;;;;;;2.17;1.47;;;9.30;99.90;9.10;98820.00;;;;4891003;28;94937;-69
2024/02/07 05:57:08;;;;;;;1.37;1.10;;;9.30;99.90;9.00;98820.00;;;;4890400;28;93350;-68
2024/02/07 05:59:34;;;;;;;2.23;1.30;;;9.20;99.90;8.90;98831.00;;;;4891298;28;108340;-68
2024/02/07 06:02:02;;;;;;;1.20;0.90;;;9.10;99.90;8.80;98820.00;;;;4891356;28;123909;-69
2024/02/07 06:04:28;;;;;;;8.23;1.60;;;9.00;99.90;8.80;98849.00;;;;4892118;28;93367;-68
2024/02/07 06:06:53;;;;;;;1.43;1.27;;;8.90;99.90;8.70;98856.00;;;;4896487;28;92780;-67
2024/02/07 06:09:19;;;;;;;1.83;1.07;;;8.90;99.90;8.70;98879.00;;;;4894614;28;92668;-67
2024/02/07 06:11:45;;;;;;;1.23;1.00;;;8.80;99.90;8.60;98881.00;;;;4894581;28;93215;-65
2024/02/07 06:14:14;;;;;;;0.83;0.80;;;8.80;99.90;8.60;98910.00;;;;4893814;28;92825;-70
2024/02/07 06:16:40;;;;;;;0.70;0.47;;;8.60;99.90;8.40;98897.00;;;;4896565;28;94093;-68
2024/02/07 06:19:05;;;;;;;0.57;0.50;;;8.60;99.90;8.10;98903.00;;;;4897306;28;93093;-68
2024/02/07 06:21:31;;;;;;;0.30;0.20;;;8.30;99.90;7.90;98907.00;;;;4895541;28;123256;-67
2024/02/07 06:23:56;;;;;;;0.20;0.20;;;8.10;99.90;7.70;98912.00;;;;4901561;28;121239;-67
2024/02/07 06:26:23;;;;;;;0.40;0.30;;;7.90;99.90;7.60;98917.00;;;;4897277;28;109419;-68
2024/02/07 06:28:50;;;;;;;0.20;0.20;;;7.80;99.90;7.40;98928.00;;;;4900684;28;107972;-67
2024/02/07 06:31:16;;;;;;;10.83;0.53;;;7.60;99.90;7.40;98932.00;;;;4893478;28;92786;-67
2024/02/07 06:33:42;;;;;;;0.30;0.20;;;7.60;99.90;7.30;98933.00;;;;4899647;28;103086;-67
2024/02/07 06:36:08;;;;;;;0.50;0.30;;;7.50;99.90;7.30;98947.00;;;;4898797;28;93056;-67
2024/02/07 06:38:33;;;;;;;0.10;0.10;;;7.40;99.90;7.20;98966.00;;;;4898312;28;109149;-66
2024/02/07 06:40:59;;;;;;;0.37;0.20;;;7.40;99.90;7.20;98957.00;;;;4896192;28;123735;-67
2024/02/07 06:43:26;;;;;;;0.17;0.17;;;7.40;99.90;7.10;98957.00;;;;4898034;28;125309;-68
2024/02/07 06:45:52;;;;;;;0.10;0.10;;;7.40;99.90;7.00;98977.00;;;;4896390;28;93083;-67
2024/02/07 06:48:19;;;;;;;0.40;0.20;;;7.20;99.90;6.80;98973.00;;;;4897609;28;99760;-67
2024/02/07 06:50:45;;;;;;;0.00;0.00;;;7.20;99.90;6.70;98968.00;;;;4897766;28;93579;-68
2024/02/07 06:53:11;;;;;;;0.10;0.10;;;6.90;99.90;6.60;98986.00;;;;4896927;28;93668;-68
2024/02/07 06:55:37;;;;;;;0.00;0.00;;;6.80;99.90;6.50;99000.00;;;;4900746;28;110633;-68
2024/02/07 06:58:03;;;;;;;0.10;0.10;;;7.30;99.90;6.50;98980.00;;;;4896206;28;108701;-68
2024/02/07 07:00:28;;;;;;;0.00;0.00;;;6.70;99.90;6.30;99003.00;;;;4909003;28;113651;-68
2024/02/07 07:02:54;;;;;;;0.00;0.00;;;6.50;99.90;6.20;99004.00;;;;4898421;28;93419;-69
2024/02/07 07:05:19;;;;;;;0.30;0.30;;;6.40;99.90;6.10;99009.00;;;;4899035;28;110097;-68
2024/02/07 07:07:45;;;;;;;0.27;0.27;;;6.30;99.90;6.10;99018.00;;;;4895941;28;108335;-69
2024/02/07 07:10:11;;;;;;;0.50;0.10;;;6.30;99.90;6.00;99027.00;;;;4892731;28;122626;-68
2024/02/07 07:12:37;;;;;;;6.20;0.27;;;6.20;99.90;5.90;99034.00;;;;4897828;28;92993;-68
2024/02/07 07:15:04;;;;;;;0.10;0.10;;;6.20;99.90;5.90;99050.00;;;;4897295;28;93204;-68
2024/02/07 07:17:29;;;;;;;0.20;0.20;;;6.10;99.90;5.80;99061.00;;;;4899266;28;97860;-68
2024/02/07 07:19:55;;;;;;;0.00;0.00;;;6.00;99.90;5.70;99050.00;;;;4895635;28;124396;-68
2024/02/07 07:22:21;;;;;;;0.00;0.00;;;5.90;99.90;5.70;99057.00;;;;4896144;28;123821;-68
2024/02/07 07:24:46;;;;;;;0.10;0.10;;;5.80;99.90;5.60;99066.00;;;;4898098;28;93187;-69
2024/02/07 07:27:12;;;;;;;0.10;0.10;;;6.30;99.90;5.50;99072.00;;;;4896125;28;93092;-69
2024/02/07 07:29:38;;;;;;;0.10;0.10;;;5.70;99.90;5.50;99076.00;;;;4896977;28;124757;-68
2024/02/07 07:32:04;;;;;;;0.10;0.10;;;5.80;99.90;5.50;99079.00;;;;4892704;28;94653;-68
2024/02/07 07:34:30;;;;;;;0.00;0.00;;;5.90;99.90;5.40;99091.00;;;;4897814;28;93277;-68
2024/02/07 07:36:56;;;;;;;0.03;0.03;;;5.60;99.90;5.40;99096.00;;;;4898234;28;92981;-69
2024/02/07 07:39:21;;;;;;;0.00;0.00;;;6.10;99.90;5.40;99083.00;;;;4894349;28;93870;-68
2024/02/07 07:41:47;;;;;;;0.40;0.10;;;6.10;99.90;5.30;99092.00;;;;4896756;28;114775;-68
2024/02/07 07:44:13;;;;;;;0.00;0.00;;;5.40;99.90;5.20;99113.00;;;;4896211;28;92806;-68
2024/02/07 07:46:38;;;;;;;0.20;0.10;;;6.00;99.90;5.10;99108.00;;;;4896197;28;93091;-67
2024/02/07 07:49:04;;;;;;;2.77;0.10;;;5.30;99.90;5.00;99101.00;;;;4895280;28;93482;-68
2024/02/07 07:51:30;;;;;;;0.73;0.20;;;5.20;99.90;4.90;99125.00;;;;4893579;28;124377;-67
2024/02/07 07:53:55;;;;;;;0.70;0.10;;;5.10;99.90;4.80;99125.00;;;;4897384;28;108934;-68
2024/02/07 07:56:21;;;;;;;0.20;0.10;;;5.10;99.90;4.80;99127.00;;;;4898463;28;92996;-67
2024/02/07 07:58:50;;;;;;;0.20;0.17;;;4.90;99.90;4.70;99122.00;;;;4896643;28;122636;-67
2024/02/07 08:01:21;;;;;;;0.00;0.00;;;4.90;99.90;4.70;99124.00;;;;4900260;28;93884;-69
2024/02/07 08:03:47;;;;;;;1.80;0.20;;;4.80;99.90;4.60;99124.00;;;;4902762;28;92862;-69
2024/02/07 08:06:15;;;;;;;0.23;0.20;;;4.70;99.90;4.60;99130.00;;;;4897652;28;101573;-68
2024/02/07 08:08:41;;;;;;;0.20;0.20;;;5.30;99.90;4.50;99134.00;;;;4900282;28;93477;-68
2024/02/07 08:11:07;;;;;;;2.30;0.50;;;4.70;99.90;4.50;99139.00;;;;4897011;28;110669;-67
2024/02/07 08:13:33;;;;;;;0.50;0.37;;;4.70;99.90;4.40;99137.00;;;;4898039;28;110325;-68
2024/02/07 08:16:01;;;;;;;0.07;0.07;;;4.60;99.90;4.40;99153.00;;;;4898803;28;92981;-68
2024/02/07 08:18:29;;;;;;;0.97;0.40;;;5.50;99.90;4.40;99143.00;;;;4897373;28;94425;-66
2024/02/07 08:20:55;;;;;;;1.73;0.47;;;4.60;99.90;4.40;99140.00;;;;4896417;28;94034;-68
2024/02/07 08:23:21;;;;;;;0.63;0.43;;;4.50;99.90;4.30;99136.00;;;;4897892;28;92771;-67
2024/02/07 08:25:47;;;;;;;0.30;0.30;;;4.60;99.90;4.30;99140.00;;;;4897564;28;99619;-67
2024/02/07 08:28:13;;;;;;;0.20;0.20;;;4.40;99.90;4.20;99154.00;;;;4897283;28;93100;-67
2024/02/07 08:30:39;;;;;;;0.17;0.13;;;4.40;99.90;4.20;99158.00;;;;4893738;28;122325;-67
2024/02/07 08:33:04;;;;;;;0.17;0.10;;;4.40;99.90;4.30;99148.00;;;;4894682;28;92845;-69
2024/02/07 08:35:30;;;;;;;2.37;0.17;;;4.40;99.90;4.20;99148.00;;;;4898415;28;103323;-68
2024/02/07 08:37:58;;;;;;;1.13;0.73;;;4.40;99.90;4.20;99158.00;;;;4895676;28;123673;-67
2024/02/07 08:40:28;;;;;;;0.57;0.33;;;4.40;99.90;4.20;99164.00;;;;4896344;28;93795;-68
2024/02/07 08:42:54;;;;;;;0.30;0.30;;;4.00;99.90;4.10;99168.00;;;;4893357;28;94878;-68
2024/02/07 08:45:22;;;;;;;1.23;0.13;;;4.30;99.90;4.10;99162.00;;;;4894133;28;93229;-68
2024/02/07 08:47:48;;;;;;;2.83;0.20;;;4.30;99.90;4.00;99167.00;;;;4893428;28;93398;-69
2024/02/07 08:50:14;;;;;;;0.67;0.37;;;4.20;99.90;3.90;99169.00;;;;4896914;28;92877;-67
2024/02/07 08:52:41;;;;;;;0.20;0.20;;;4.20;99.90;3.80;99173.00;;;;4899071;28;94641;-69
2024/02/07 08:55:08;;;;;;;0.87;0.37;;;4.00;99.90;3.80;99167.00;;;;4896108;28;102041;-68
2024/02/07 08:57:39;;;;;;;0.20;0.20;;;4.10;99.90;3.70;99162.00;;;;4894149;28;94239;-67
2024/02/07 09:00:07;;;;;;;0.30;0.30;;;3.80;99.90;3.60;99166.00;;;;4901341;28;93316;-69
2024/02/07 09:02:33;;;;;;;0.10;0.10;;;3.90;99.90;3.60;99179.00;;;;4886498;28;92869;-69
2024/02/07 09:05:04;;;;;;;0.77;0.40;;;3.80;99.90;3.60;99181.00;;;;4902885;28;109179;-70
2024/02/07 09:07:31;;;;;;;0.43;0.30;;;3.80;99.90;3.60;99179.00;;;;4893231;28;94281;-68
2024/02/07 09:09:57;;;;;;;0.20;0.20;;;3.80;99.90;3.50;99170.00;;;;4897754;28;93841;-68
2024/02/07 09:12:23;;;;;;;1.00;0.20;;;3.90;99.90;3.50;99167.00;;;;4887660;28;93213;-68
2024/02/07 09:14:48;;;;;;;0.30;0.30;;;4.40;99.90;3.50;99176.00;;;;4897816;28;92925;-68
2024/02/07 09:17:14;;;;;;;0.20;0.20;;;3.80;99.90;3.60;99176.00;;;;4894663;28;121960;-69
2024/02/07 09:19:40;;;;;;;0.30;0.30;;;4.30;99.90;3.50;99191.00;;;;4897284;28;122719;-68
2024/02/07 09:22:05;;;;;;;0.50;0.10;;;3.70;99.90;3.50;99190.00;;;;4896239;28;109843;-69
2024/02/07 09:24:31;;;;;;;0.20;0.20;;;3.80;99.90;3.50;99198.00;;;;4897408;28;108809;-69
2024/02/07 09:26:58;;;;;;;2.37;0.50;;;3.70;99.90;3.50;99200.00;;;;4895235;28;123066;-70
2024/02/07 09:29:24;;;;;;;1.90;0.47;;;3.80;99.90;3.50;99208.00;;;;4897729;28;93045;-68
2024/02/07 09:31:50;;;;;;;0.60;0.40;;;3.80;99.90;3.40;99205.00;;;;4895823;28;95589;-70
2024/02/07 09:34:15;;;;;;;0.20;0.20;;;3.70;99.90;3.40;99200.00;;;;4893576;28;108073;-68
2024/02/07 09:36:41;;;;;;;1.00;0.40;;;3.70;99.90;3.40;99200.00;;;;4890992;28;122581;-70
2024/02/07 09:39:07;;;;;;;0.47;0.47;;;3.60;99.90;3.40;99200.00;;;;4895524;28;113614;-69
2024/02/07 09:41:34;;;;;;;0.50;0.50;;;3.60;99.90;3.40;99190.00;;;;4901652;28;93108;-66
2024/02/07 09:44:03;;;;;;;0.10;0.10;;;3.60;99.90;3.40;99201.00;;;;4894649;28;93100;-69
2024/02/07 09:46:43;;;;;;;2.17;0.40;;;4.50;99.90;3.40;99196.00;;;;4890736;28;93893;-69
2024/02/07 09:49:15;;;;;;;0.30;0.30;;;3.70;99.90;3.40;99204.00;;;;4894355;28;93532;-68
2024/02/07 09:51:42;;;;;;;0.20;0.20;;;3.60;99.90;3.40;99203.00;;;;4895368;28;92810;-70
2024/02/07 09:54:12;;;;;;;0.40;0.20;;;3.60;99.90;3.40;99196.00;;;;4895687;28;93021;-68
2024/02/07 09:56:40;;;;;;;0.87;0.60;;;3.60;99.90;3.40;99199.00;;;;4895579;28;95186;-68
2024/02/07 09:59:11;;;;;;;2.30;0.50;;;3.70;99.90;3.40;99201.00;;;;4897325;28;94994;-67
2024/02/07 10:01:37;;;;;;;2.23;0.20;;;3.60;99.90;3.40;99213.00;;;;4894385;28;93007;-67
2024/02/07 10:04:09;;;;;;;1.33;0.50;;;3.60;99.90;3.50;99208.00;;;;4896174;28;96989;-68
2024/02/07 10:06:36;;;;;;;1.30;0.50;;;3.70;99.90;3.50;99218.00;;;;4910798;28;117324;-68
2024/02/07 10:09:01;;;;;;;0.10;0.10;;;3.50;99.90;3.60;99205.00;;;;4898097;28;93870;-68
2024/02/07 10:11:30;;;;;;;0.20;0.20;;;3.80;99.90;3.60;99218.00;;;;4897454;28;93544;-68
2024/02/07 10:13:55;;;;;;;3.50;0.37;;;3.70;99.90;3.60;99200.00;;;;4893589;28;109809;-68
2024/02/07 10:16:21;;;;;;;0.70;0.47;;;3.80;99.90;3.60;99201.00;;;;4895070;28;122978;-67
2024/02/07 10:18:49;;;;;;;0.50;0.50;;;3.70;99.90;3.60;99215.00;;;;4893159;28;124844;-69
2024/02/07 10:21:15;;;;;;;0.40;0.40;;;3.80;99.90;3.60;99209.00;;;;4906939;28;95312;-69
2024/02/07 10:23:42;;;;;;;2.87;0.47;;;3.80;99.90;3.60;99220.00;;;;4893652;28;103749;-70
2024/02/07 10:26:08;;;;;;;0.20;0.20;;;3.90;99.90;3.60;99223.00;;;;4892168;28;99499;-69
2024/02/07 10:28:33;;;;;;;0.60;0.40;;;3.90;99.90;3.50;99218.00;;;;4911282;28;93165;-67
2024/02/07 10:31:01;;;;;;;1.00;0.30;;;4.80;99.90;3.50;99226.00;;;;4893990;28;101301;-69
2024/02/07 10:33:40;;;;;;;0.30;0.20;;;3.80;99.90;3.50;99233.00;;;;4892022;28;99292;-69
2024/02/07 10:36:07;;;;;;;0.10;0.10;;;4.90;99.90;3.50;99233.00;;;;4903308;28;93003;-68
2024/02/07 10:38:34;;;;;;;0.27;0.13;;;3.70;99.90;3.50;99235.00;;;;4895018;28;94046;-69
2024/02/07 10:41:01;;;;;;;0.20;0.13;;;4.10;99.90;3.50;99233.00;;;;4895257;28;101467;-68
2024/02/07 10:43:29;;;;;;;0.10;0.10;;;3.80;99.90;3.50;99237.00;;;;4894875;28;93124;-69
2024/02/07 10:46:21;;;;;;;0.73;0.30;;;4.60;99.90;3.50;99226.00;;;;4893754;28;112229;-69
2024/02/07 10:48:48;;;;;;;0.53;0.50;;;3.80;99.90;3.50;99224.00;;;;4890415;28;122201;-69
2024/02/07 10:51:14;;;;;;;2.57;0.50;;;3.70;99.90;3.50;99223.00;;;;4898892;28;110681;-68
2024/02/07 10:53:39;;;;;;;0.30;0.30;;;3.80;99.90;3.50;99222.00;;;;4878313;28;108513;-68
2024/02/07 10:56:13;;;;;;;0.20;0.20;;;3.80;99.90;3.50;99208.00;;;;4889996;28;122357;-68
2024/02/07 10:58:40;;;;;;;1.97;0.50;;;3.80;99.90;3.50;99212.00;;;;4893787;28;93010;-69
2024/02/07 11:01:06;;;;;;;0.17;0.17;;;3.80;99.90;3.60;99210.00;;;;4895724;28;93155;-69
2024/02/07 11:03:34;;;;;;;0.60;0.60;;;3.70;99.90;3.60;99213.00;;;;4903659;28;107894;-70
2024/02/07 11:06:00;;;;;;;0.47;0.40;;;3.80;99.90;3.70;99221.00;;;;4895011;28;94344;-69
2024/02/07 11:08:26;;;;;;;0.50;0.40;;;3.70;99.90;3.60;99223.00;;;;4908864;28;122641;-68
2024/02/07 11:10:56;;;;;;;1.23;0.60;;;3.80;99.90;3.60;99230.00;;;;4888977;28;94013;-68
2024/02/07 11:13:22;;;;;;;1.30;0.20;;;3.90;99.90;3.60;99219.00;;;;4899711;28;92799;-69
2024/02/07 11:15:48;;;;;;;1.67;0.57;;;3.90;99.90;3.60;99228.00;;;;4898864;28;121413;-69
2024/02/07 11:18:14;;;;;;;1.03;0.83;;;3.90;99.90;3.60;99217.00;;;;4895221;28;122477;-69
2024/02/07 11:20:44;;;;;;;2.37;0.67;;;3.90;99.90;3.60;99218.00;;;;4905871;28;108901;-69
2024/02/07 11:23:27;;;;;;;0.30;0.30;;;3.80;99.90;3.60;99230.00;;;;4914395;28;93116;-68
2024/02/07 11:25:53;;;;;;;0.27;0.20;;;3.80;99.90;3.50;99234.00;;;;4891609;28;95871;-69
2024/02/07 11:28:19;;;;;;;0.60;0.50;;;3.70;99.90;3.60;99226.00;;;;4899264;28;120409;-68
2024/02/07 11:30:49;;;;;;;0.40;0.40;;;3.70;99.90;3.50;99244.00;;;;4894721;28;93014;-68
2024/02/07 11:33:14;;;;;;;2.20;0.70;;;4.30;99.90;3.50;99234.00;;;;4899505;28;93351;-68
2024/02/07 11:35:40;;;;;;;0.40;0.40;;;3.70;99.90;3.60;99228.00;;;;4893611;28;108850;-68
2024/02/07 11:38:10;;;;;;;0.40;0.40;;;3.80;99.90;3.60;99229.00;;;;4896035;28;93703;-67
2024/02/07 11:40:41;;;;;;;0.47;0.47;;;3.80;99.90;3.60;99237.00;;;;4911003;28;93587;-66
2024/02/07 11:43:10;;;;;;;0.50;0.37;;;3.80;99.90;3.60;99241.00;;;;4897467;28;93065;-67
2024/02/07 11:45:39;;;;;;;0.87;0.50;;;3.70;99.90;3.60;99232.00;;;;4900533;28;93982;-67
2024/02/07 11:48:26;;;;;;;0.47;0.47;;;4.80;99.90;3.50;99243.00;;;;4896287;28;94569;-68
2024/02/07 11:50:53;;;;;;;1.10;0.50;;;3.90;99.90;3.60;99254.00;;;;4897276;28;101213;-69
2024/02/07 11:53:25;;;;;;;0.47;0.47;;;4.60;99.90;3.60;99234.00;;;;4897259;28;93604;-67
2024/02/07 11:55:51;;;;;;;0.93;0.60;;;4.00;99.90;3.60;99233.00;;;;4896246;28;110524;-69
2024/02/07 11:58:17;;;;;;;0.80;0.70;;;3.80;99.90;3.70;99226.00;;;;4911066;28;108779;-68
2024/02/07 12:00:44;;;;;;;1.30;0.50;;;3.90;99.90;3.70;99218.00;;;;4900603;28;93902;-67
2024/02/07 12:03:14;;;;;;;1.30;0.73;;;3.90;99.90;3.80;99230.00;;;;4895068;28;93101;-69
2024/02/07 12:05:41;;;;;;;0.67;0.60;;;4.00;99.90;3.80;99228.00;;;;4908968;28;93071;-68
2024/02/07 12:08:08;;;;;;;0.40;0.30;;;4.00;99.90;3.80;99226.00;;;;4898659;28;93968;-68
2024/02/07 12:10:34;;;;;;;5.60;0.60;;;4.70;99.90;3.90;99222.00;;;;4895158;28;93527;-67